sensor_id;sensor_type;location;lat;lon;timestamp;P1;durP1;ratioP1;P2;durP2;ratioP2
6519;SDS011;3293;51.690;5.982;2023-09-12T00:00:29;53.60;;;36.08;;
6519;SDS011;3293;51.690;5.982;2023-09-12T00:05:29;58.45;;;38.65;;
6519;SDS011;3293;51.690;5.982;2023-09-12T00:10:29;58.90;;;36.33;;
6519;SDS011;3293;51.690;5.982;2023-09-12T00:15:29;66.03;;;38.97;;
6519;SDS011;3293;51.690;5.982;2023-09-12T00:20:29;62.63;;;39.80;;
6519;SDS011;3293;51.690;5.982;2023-09-12T00:25:29;68.88;;;42.92;;
6519;SDS011;3293;51.690;5.982;2023-09-12T00:30:29;74.68;;;45.72;;
6519;SDS011;3293;51.690;5.982;2023-09-12T00:35:29;72.93;;;44.00;;
6519;SDS011;3293;51.690;5.982;2023-09-12T00:40:29;78.53;;;45.42;;
6519;SDS011;3293;51.690;5.982;2023-09-12T00:45:29;69.90;;;41.88;;
6519;SDS011;3293;51.690;5.982;2023-09-12T00:50:29;68.05;;;40.72;;
6519;SDS011;3293;51.690;5.982;2023-09-12T00:55:31;57.67;;;36.03;;
6519;SDS011;3293;51.690;5.982;2023-09-12T01:00:33;57.95;;;37.28;;
6519;SDS011;3293;51.690;5.982;2023-09-12T01:05:36;57.33;;;37.33;;
6519;SDS011;3293;51.690;5.982;2023-09-12T01:10:36;63.83;;;38.90;;
6519;SDS011;3293;51.690;5.982;2023-09-12T01:15:36;66.80;;;38.85;;
6519;SDS011;3293;51.690;5.982;2023-09-12T01:20:36;61.78;;;38.92;;
6519;SDS011;3293;51.690;5.982;2023-09-12T01:25:55;61.25;;;35.20;;
6519;SDS011;3293;51.690;5.982;2023-09-12T01:31:09;54.28;;;34.65;;
6519;SDS011;3293;51.690;5.982;2023-09-12T01:36:09;60.28;;;38.75;;
6519;SDS011;3293;51.690;5.982;2023-09-12T01:41:09;67.10;;;39.60;;
6519;SDS011;3293;51.690;5.982;2023-09-12T01:46:10;62.08;;;34.85;;
6519;SDS011;3293;51.690;5.982;2023-09-12T01:51:09;66.30;;;39.53;;
6519;SDS011;3293;51.690;5.982;2023-09-12T01:56:11;63.83;;;37.10;;
6519;SDS011;3293;51.690;5.982;2023-09-12T02:01:12;59.90;;;35.55;;
6519;SDS011;3293;51.690;5.982;2023-09-12T02:06:13;54.65;;;33.15;;
6519;SDS011;3293;51.690;5.982;2023-09-12T02:11:13;47.20;;;30.95;;
6519;SDS011;3293;51.690;5.982;2023-09-12T02:16:22;52.28;;;34.25;;
6519;SDS011;3293;51.690;5.982;2023-09-12T02:21:22;56.25;;;33.58;;
6519;SDS011;3293;51.690;5.982;2023-09-12T02:26:22;69.13;;;38.40;;
6519;SDS011;3293;51.690;5.982;2023-09-12T02:31:21;57.17;;;35.95;;
6519;SDS011;3293;51.690;5.982;2023-09-12T02:36:22;60.63;;;37.33;;
6519;SDS011;3293;51.690;5.982;2023-09-12T02:41:22;51.17;;;31.77;;
6519;SDS011;3293;51.690;5.982;2023-09-12T02:46:23;50.95;;;31.45;;
6519;SDS011;3293;51.690;5.982;2023-09-12T02:51:23;59.55;;;36.05;;
6519;SDS011;3293;51.690;5.982;2023-09-12T02:56:25;54.58;;;34.38;;
6519;SDS011;3293;51.690;5.982;2023-09-12T03:01:25;48.60;;;30.25;;
6519;SDS011;3293;51.690;5.982;2023-09-12T03:06:28;51.35;;;32.13;;
6519;SDS011;3293;51.690;5.982;2023-09-12T03:11:29;57.10;;;36.03;;
6519;SDS011;3293;51.690;5.982;2023-09-12T03:16:29;61.38;;;37.20;;
6519;SDS011;3293;51.690;5.982;2023-09-12T03:21:30;64.90;;;37.42;;
6519;SDS011;3293;51.690;5.982;2023-09-12T03:26:30;70.43;;;40.03;;
6519;SDS011;3293;51.690;5.982;2023-09-12T03:31:32;77.32;;;42.10;;
6519;SDS011;3293;51.690;5.982;2023-09-12T03:36:34;69.15;;;37.33;;
6519;SDS011;3293;51.690;5.982;2023-09-12T03:41:35;75.22;;;39.97;;
6519;SDS011;3293;51.690;5.982;2023-09-12T03:46:35;77.43;;;40.50;;
6519;SDS011;3293;51.690;5.982;2023-09-12T03:51:35;79.18;;;40.92;;
6519;SDS011;3293;51.690;5.982;2023-09-12T03:56:37;80.80;;;42.67;;
6519;SDS011;3293;51.690;5.982;2023-09-12T04:01:37;74.03;;;40.38;;
6519;SDS011;3293;51.690;5.982;2023-09-12T04:06:37;76.25;;;42.88;;
6519;SDS011;3293;51.690;5.982;2023-09-12T04:11:37;87.78;;;44.88;;
6519;SDS011;3293;51.690;5.982;2023-09-12T04:16:37;88.25;;;45.80;;
6519;SDS011;3293;51.690;5.982;2023-09-12T04:21:37;98.95;;;49.42;;
6519;SDS011;3293;51.690;5.982;2023-09-12T04:26:37;102.65;;;49.97;;
6519;SDS011;3293;51.690;5.982;2023-09-12T04:31:37;79.55;;;44.05;;
6519;SDS011;3293;51.690;5.982;2023-09-12T04:36:37;88.15;;;46.47;;
6519;SDS011;3293;51.690;5.982;2023-09-12T04:41:37;90.15;;;45.92;;
6519;SDS011;3293;51.690;5.982;2023-09-12T04:46:37;83.45;;;44.90;;
6519;SDS011;3293;51.690;5.982;2023-09-12T04:51:37;68.22;;;39.42;;
6519;SDS011;3293;51.690;5.982;2023-09-12T04:56:37;60.45;;;36.33;;
6519;SDS011;3293;51.690;5.982;2023-09-12T05:01:38;70.32;;;40.35;;
6519;SDS011;3293;51.690;5.982;2023-09-12T05:06:38;78.88;;;42.70;;
6519;SDS011;3293;51.690;5.982;2023-09-12T05:11:39;83.38;;;45.25;;
6519;SDS011;3293;51.690;5.982;2023-09-12T05:16:39;86.03;;;44.97;;
6519;SDS011;3293;51.690;5.982;2023-09-12T05:21:39;88.13;;;47.35;;
6519;SDS011;3293;51.690;5.982;2023-09-12T05:26:39;94.13;;;47.40;;
6519;SDS011;3293;51.690;5.982;2023-09-12T05:31:39;86.18;;;44.85;;
6519;SDS011;3293;51.690;5.982;2023-09-12T05:36:39;82.65;;;44.70;;
6519;SDS011;3293;51.690;5.982;2023-09-12T05:41:39;105.30;;;51.67;;
6519;SDS011;3293;51.690;5.982;2023-09-12T05:46:39;91.32;;;50.33;;
6519;SDS011;3293;51.690;5.982;2023-09-12T05:51:39;94.28;;;46.13;;
6519;SDS011;3293;51.690;5.982;2023-09-12T05:56:39;83.72;;;43.72;;
6519;SDS011;3293;51.690;5.982;2023-09-12T06:01:39;82.88;;;43.80;;
6519;SDS011;3293;51.690;5.982;2023-09-12T06:06:40;77.97;;;42.20;;
6519;SDS011;3293;51.690;5.982;2023-09-12T06:11:40;74.57;;;42.90;;
6519;SDS011;3293;51.690;5.982;2023-09-12T06:16:40;69.07;;;40.67;;
6519;SDS011;3293;51.690;5.982;2023-09-12T06:21:40;66.32;;;39.08;;
6519;SDS011;3293;51.690;5.982;2023-09-12T06:26:41;64.15;;;40.67;;
6519;SDS011;3293;51.690;5.982;2023-09-12T06:31:41;62.95;;;38.50;;
6519;SDS011;3293;51.690;5.982;2023-09-12T06:36:42;73.93;;;45.25;;
6519;SDS011;3293;51.690;5.982;2023-09-12T06:41:45;78.72;;;44.70;;
6519;SDS011;3293;51.690;5.982;2023-09-12T06:46:45;74.35;;;44.60;;
6519;SDS011;3293;51.690;5.982;2023-09-12T06:51:45;69.38;;;42.90;;
6519;SDS011;3293;51.690;5.982;2023-09-12T06:56:45;62.97;;;39.22;;
6519;SDS011;3293;51.690;5.982;2023-09-12T07:01:46;58.03;;;36.55;;
6519;SDS011;3293;51.690;5.982;2023-09-12T07:06:46;58.00;;;37.20;;
6519;SDS011;3293;51.690;5.982;2023-09-12T07:11:47;75.72;;;45.28;;
6519;SDS011;3293;51.690;5.982;2023-09-12T07:16:47;75.68;;;45.47;;
6519;SDS011;3293;51.690;5.982;2023-09-12T07:21:47;73.68;;;45.92;;
6519;SDS011;3293;51.690;5.982;2023-09-12T07:26:47;68.15;;;43.97;;
6519;SDS011;3293;51.690;5.982;2023-09-12T07:31:47;63.15;;;42.00;;
6519;SDS011;3293;51.690;5.982;2023-09-12T07:36:50;66.13;;;41.38;;
6519;SDS011;3293;51.690;5.982;2023-09-12T07:41:50;65.55;;;42.38;;
6519;SDS011;3293;51.690;5.982;2023-09-12T07:46:50;60.30;;;39.55;;
6519;SDS011;3293;51.690;5.982;2023-09-12T07:51:50;48.30;;;34.72;;
6519;SDS011;3293;51.690;5.982;2023-09-12T07:56:50;49.90;;;34.35;;
6519;SDS011;3293;51.690;5.982;2023-09-12T08:01:50;45.25;;;32.10;;
6519;SDS011;3293;51.690;5.982;2023-09-12T08:06:51;41.67;;;31.27;;
6519;SDS011;3293;51.690;5.982;2023-09-12T08:11:51;42.63;;;30.65;;
6519;SDS011;3293;51.690;5.982;2023-09-12T08:16:51;36.28;;;28.30;;
6519;SDS011;3293;51.690;5.982;2023-09-12T08:21:51;30.45;;;25.25;;
6519;SDS011;3293;51.690;5.982;2023-09-12T08:26:50;31.92;;;23.92;;
6519;SDS011;3293;51.690;5.982;2023-09-12T08:31:50;29.48;;;24.55;;
6519;SDS011;3293;51.690;5.982;2023-09-12T08:36:51;29.95;;;22.17;;
6519;SDS011;3293;51.690;5.982;2023-09-12T08:41:51;22.98;;;19.33;;
6519;SDS011;3293;51.690;5.982;2023-09-12T08:46:52;24.90;;;21.35;;
6519;SDS011;3293;51.690;5.982;2023-09-12T08:51:52;25.48;;;21.38;;
6519;SDS011;3293;51.690;5.982;2023-09-12T08:56:52;23.80;;;20.75;;
6519;SDS011;3293;51.690;5.982;2023-09-12T09:01:53;29.10;;;23.10;;
6519;SDS011;3293;51.690;5.982;2023-09-12T09:06:56;24.92;;;22.00;;
6519;SDS011;3293;51.690;5.982;2023-09-12T09:11:57;26.90;;;22.17;;
6519;SDS011;3293;51.690;5.982;2023-09-12T09:16:57;24.10;;;20.02;;
6519;SDS011;3293;51.690;5.982;2023-09-12T09:22:04;25.15;;;20.33;;
6519;SDS011;3293;51.690;5.982;2023-09-12T09:27:05;23.75;;;20.63;;
6519;SDS011;3293;51.690;5.982;2023-09-12T09:32:05;26.50;;;21.20;;
6519;SDS011;3293;51.690;5.982;2023-09-12T09:37:21;27.45;;;22.70;;
6519;SDS011;3293;51.690;5.982;2023-09-12T09:42:21;33.17;;;25.25;;
6519;SDS011;3293;51.690;5.982;2023-09-12T09:47:21;23.75;;;20.70;;
6519;SDS011;3293;51.690;5.982;2023-09-12T09:52:27;18.10;;;16.17;;
6519;SDS011;3293;51.690;5.982;2023-09-12T09:57:27;15.25;;;13.65;;
6519;SDS011;3293;51.690;5.982;2023-09-12T10:02:27;13.50;;;11.45;;
6519;SDS011;3293;51.690;5.982;2023-09-12T10:07:28;13.32;;;11.00;;
6519;SDS011;3293;51.690;5.982;2023-09-12T10:12:32;14.13;;;11.70;;
6519;SDS011;3293;51.690;5.982;2023-09-12T10:17:36;10.70;;;9.57;;
6519;SDS011;3293;51.690;5.982;2023-09-12T10:22:49;18.75;;;15.57;;
6519;SDS011;3293;51.690;5.982;2023-09-12T10:27:58;20.05;;;15.15;;
6519;SDS011;3293;51.690;5.982;2023-09-12T10:32:59;20.15;;;15.82;;
6519;SDS011;3293;51.690;5.982;2023-09-12T10:38:02;15.35;;;13.48;;
6519;SDS011;3293;51.690;5.982;2023-09-12T10:43:04;15.10;;;13.45;;
6519;SDS011;3293;51.690;5.982;2023-09-12T10:48:05;14.50;;;13.00;;
6519;SDS011;3293;51.690;5.982;2023-09-12T10:53:11;12.23;;;10.27;;
6519;SDS011;3293;51.690;5.982;2023-09-12T10:58:12;11.82;;;10.63;;
6519;SDS011;3293;51.690;5.982;2023-09-12T11:08:29;12.65;;;11.35;;
6519;SDS011;3293;51.690;5.982;2023-09-12T11:13:38;15.48;;;12.38;;
6519;SDS011;3293;51.690;5.982;2023-09-12T11:24:20;19.35;;;15.40;;
6519;SDS011;3293;51.690;5.982;2023-09-12T11:29:20;13.82;;;12.15;;
6519;SDS011;3293;51.690;5.982;2023-09-12T11:34:20;14.80;;;13.30;;
6519;SDS011;3293;51.690;5.982;2023-09-12T11:39:31;14.85;;;13.20;;
6519;SDS011;3293;51.690;5.982;2023-09-12T11:44:33;13.68;;;12.02;;
6519;SDS011;3293;51.690;5.982;2023-09-12T11:49:36;18.98;;;14.07;;
6519;SDS011;3293;51.690;5.982;2023-09-12T11:54:38;15.30;;;12.73;;
6519;SDS011;3293;51.690;5.982;2023-09-12T11:59:40;13.77;;;11.90;;
6519;SDS011;3293;51.690;5.982;2023-09-12T12:04:44;14.82;;;10.07;;
6519;SDS011;3293;51.690;5.982;2023-09-12T12:09:44;13.25;;;9.90;;
6519;SDS011;3293;51.690;5.982;2023-09-12T12:14:44;13.13;;;10.20;;
6519;SDS011;3293;51.690;5.982;2023-09-12T12:19:45;15.05;;;12.05;;
6519;SDS011;3293;51.690;5.982;2023-09-12T12:24:46;11.15;;;9.75;;
6519;SDS011;3293;51.690;5.982;2023-09-12T12:29:47;13.90;;;10.85;;
6519;SDS011;3293;51.690;5.982;2023-09-12T12:34:48;11.90;;;8.77;;
6519;SDS011;3293;51.690;5.982;2023-09-12T12:39:48;9.60;;;8.57;;
6519;SDS011;3293;51.690;5.982;2023-09-12T12:44:52;10.85;;;8.77;;
6519;SDS011;3293;51.690;5.982;2023-09-12T12:49:53;12.10;;;8.30;;
6519;SDS011;3293;51.690;5.982;2023-09-12T12:55:02;12.95;;;10.10;;
6519;SDS011;3293;51.690;5.982;2023-09-12T13:00:07;10.07;;;8.63;;
6519;SDS011;3293;51.690;5.982;2023-09-12T13:05:20;12.63;;;8.63;;
6519;SDS011;3293;51.690;5.982;2023-09-12T13:10:25;11.05;;;8.32;;
6519;SDS011;3293;51.690;5.982;2023-09-12T13:15:25;8.30;;;7.28;;
6519;SDS011;3293;51.690;5.982;2023-09-12T13:20:25;10.55;;;8.07;;
6519;SDS011;3293;51.690;5.982;2023-09-12T13:25:25;7.13;;;6.28;;
6519;SDS011;3293;51.690;5.982;2023-09-12T13:30:26;7.57;;;5.82;;
6519;SDS011;3293;51.690;5.982;2023-09-12T13:35:26;8.63;;;6.85;;
6519;SDS011;3293;51.690;5.982;2023-09-12T13:40:27;9.30;;;7.10;;
6519;SDS011;3293;51.690;5.982;2023-09-12T13:45:27;10.13;;;7.32;;
6519;SDS011;3293;51.690;5.982;2023-09-12T13:50:27;10.00;;;7.60;;
6519;SDS011;3293;51.690;5.982;2023-09-12T13:55:27;6.93;;;6.18;;
6519;SDS011;3293;51.690;5.982;2023-09-12T14:00:28;6.53;;;5.70;;
6519;SDS011;3293;51.690;5.982;2023-09-12T14:05:28;5.13;;;4.45;;
6519;SDS011;3293;51.690;5.982;2023-09-12T14:10:28;6.30;;;5.57;;
6519;SDS011;3293;51.690;5.982;2023-09-12T14:15:28;6.00;;;5.03;;
6519;SDS011;3293;51.690;5.982;2023-09-12T14:20:28;7.47;;;5.57;;
6519;SDS011;3293;51.690;5.982;2023-09-12T14:25:28;6.47;;;4.90;;
6519;SDS011;3293;51.690;5.982;2023-09-12T14:30:28;5.88;;;5.15;;
6519;SDS011;3293;51.690;5.982;2023-09-12T14:35:35;8.93;;;6.70;;
6519;SDS011;3293;51.690;5.982;2023-09-12T14:40:36;6.50;;;5.88;;
6519;SDS011;3293;51.690;5.982;2023-09-12T14:45:37;5.85;;;4.70;;
6519;SDS011;3293;51.690;5.982;2023-09-12T14:50:37;4.72;;;4.20;;
6519;SDS011;3293;51.690;5.982;2023-09-12T14:55:38;6.88;;;5.00;;
6519;SDS011;3293;51.690;5.982;2023-09-12T15:00:38;6.32;;;5.68;;
6519;SDS011;3293;51.690;5.982;2023-09-12T15:05:38;5.18;;;4.68;;
6519;SDS011;3293;51.690;5.982;2023-09-12T15:10:38;5.10;;;4.47;;
6519;SDS011;3293;51.690;5.982;2023-09-12T15:15:38;8.25;;;5.00;;
6519;SDS011;3293;51.690;5.982;2023-09-12T15:20:38;5.80;;;5.15;;
6519;SDS011;3293;51.690;5.982;2023-09-12T15:25:39;6.07;;;5.28;;
6519;SDS011;3293;51.690;5.982;2023-09-12T15:30:39;5.05;;;3.85;;
6519;SDS011;3293;51.690;5.982;2023-09-12T15:35:39;5.13;;;4.30;;
6519;SDS011;3293;51.690;5.982;2023-09-12T15:40:39;4.20;;;3.80;;
6519;SDS011;3293;51.690;5.982;2023-09-12T15:45:40;7.55;;;4.20;;
6519;SDS011;3293;51.690;5.982;2023-09-12T15:50:40;3.97;;;3.53;;
6519;SDS011;3293;51.690;5.982;2023-09-12T15:55:41;5.80;;;4.60;;
6519;SDS011;3293;51.690;5.982;2023-09-12T16:00:41;3.60;;;3.30;;
6519;SDS011;3293;51.690;5.982;2023-09-12T16:05:41;7.75;;;4.47;;
6519;SDS011;3293;51.690;5.982;2023-09-12T16:10:41;4.20;;;3.60;;
6519;SDS011;3293;51.690;5.982;2023-09-12T16:15:41;3.70;;;3.40;;
6519;SDS011;3293;51.690;5.982;2023-09-12T16:20:41;3.22;;;2.92;;
6519;SDS011;3293;51.690;5.982;2023-09-12T16:25:41;4.30;;;3.70;;
6519;SDS011;3293;51.690;5.982;2023-09-12T16:30:42;4.43;;;4.03;;
6519;SDS011;3293;51.690;5.982;2023-09-12T16:35:43;5.95;;;3.88;;
6519;SDS011;3293;51.690;5.982;2023-09-12T16:40:45;4.35;;;3.80;;
6519;SDS011;3293;51.690;5.982;2023-09-12T16:45:45;4.20;;;3.80;;
6519;SDS011;3293;51.690;5.982;2023-09-12T16:50:45;3.75;;;3.45;;
6519;SDS011;3293;51.690;5.982;2023-09-12T16:55:45;4.07;;;3.67;;
6519;SDS011;3293;51.690;5.982;2023-09-12T17:00:45;4.70;;;4.22;;
6519;SDS011;3293;51.690;5.982;2023-09-12T17:05:45;4.13;;;3.80;;
6519;SDS011;3293;51.690;5.982;2023-09-12T17:10:45;5.35;;;3.83;;
6519;SDS011;3293;51.690;5.982;2023-09-12T17:15:46;4.32;;;3.92;;
6519;SDS011;3293;51.690;5.982;2023-09-12T17:20:46;4.00;;;3.63;;
6519;SDS011;3293;51.690;5.982;2023-09-12T17:25:46;4.72;;;4.30;;
6519;SDS011;3293;51.690;5.982;2023-09-12T17:30:46;4.68;;;4.10;;
6519;SDS011;3293;51.690;5.982;2023-09-12T17:35:47;4.55;;;4.20;;
6519;SDS011;3293;51.690;5.982;2023-09-12T17:40:48;5.35;;;4.20;;
6519;SDS011;3293;51.690;5.982;2023-09-12T17:45:50;4.72;;;4.18;;
6519;SDS011;3293;51.690;5.982;2023-09-12T17:50:52;5.50;;;4.18;;
6519;SDS011;3293;51.690;5.982;2023-09-12T17:55:52;5.25;;;4.75;;
6519;SDS011;3293;51.690;5.982;2023-09-12T18:00:59;7.25;;;5.97;;
6519;SDS011;3293;51.690;5.982;2023-09-12T18:06:02;5.63;;;5.05;;
6519;SDS011;3293;51.690;5.982;2023-09-12T18:11:03;6.45;;;5.85;;
6519;SDS011;3293;51.690;5.982;2023-09-12T18:16:03;6.07;;;5.47;;
6519;SDS011;3293;51.690;5.982;2023-09-12T18:21:02;8.02;;;6.60;;
6519;SDS011;3293;51.690;5.982;2023-09-12T18:26:02;8.10;;;7.03;;
6519;SDS011;3293;51.690;5.982;2023-09-12T18:31:02;8.32;;;6.63;;
6519;SDS011;3293;51.690;5.982;2023-09-12T18:36:03;8.23;;;7.00;;
6519;SDS011;3293;51.690;5.982;2023-09-12T18:41:04;7.53;;;6.40;;
6519;SDS011;3293;51.690;5.982;2023-09-12T18:46:05;7.15;;;6.45;;
6519;SDS011;3293;51.690;5.982;2023-09-12T18:51:07;8.40;;;7.60;;
6519;SDS011;3293;51.690;5.982;2023-09-12T18:56:07;9.32;;;8.23;;
6519;SDS011;3293;51.690;5.982;2023-09-12T19:01:07;9.18;;;8.27;;
6519;SDS011;3293;51.690;5.982;2023-09-12T19:06:08;10.70;;;8.05;;
6519;SDS011;3293;51.690;5.982;2023-09-12T19:11:08;10.93;;;9.30;;
6519;SDS011;3293;51.690;5.982;2023-09-12T19:16:08;10.68;;;9.57;;
6519;SDS011;3293;51.690;5.982;2023-09-12T19:21:10;12.38;;;11.07;;
6519;SDS011;3293;51.690;5.982;2023-09-12T19:26:10;12.45;;;11.15;;
6519;SDS011;3293;51.690;5.982;2023-09-12T19:31:11;13.23;;;10.95;;
6519;SDS011;3293;51.690;5.982;2023-09-12T19:36:18;16.73;;;11.50;;
6519;SDS011;3293;51.690;5.982;2023-09-12T19:41:18;14.27;;;11.07;;
6519;SDS011;3293;51.690;5.982;2023-09-12T19:46:18;16.58;;;12.77;;
6519;SDS011;3293;51.690;5.982;2023-09-12T19:51:19;14.18;;;12.25;;
6519;SDS011;3293;51.690;5.982;2023-09-12T19:56:18;15.75;;;14.10;;
6519;SDS011;3293;51.690;5.982;2023-09-12T20:01:18;17.52;;;14.45;;
6519;SDS011;3293;51.690;5.982;2023-09-12T20:06:18;16.20;;;14.50;;
6519;SDS011;3293;51.690;5.982;2023-09-12T20:11:18;17.77;;;15.82;;
6519;SDS011;3293;51.690;5.982;2023-09-12T20:16:19;17.27;;;15.40;;
6519;SDS011;3293;51.690;5.982;2023-09-12T20:21:20;17.33;;;14.02;;
6519;SDS011;3293;51.690;5.982;2023-09-12T20:26:20;19.77;;;16.35;;
6519;SDS011;3293;51.690;5.982;2023-09-12T20:31:20;17.48;;;15.25;;
6519;SDS011;3293;51.690;5.982;2023-09-12T20:36:21;17.10;;;15.30;;
6519;SDS011;3293;51.690;5.982;2023-09-12T20:41:21;19.67;;;17.13;;
6519;SDS011;3293;51.690;5.982;2023-09-12T20:46:21;16.15;;;14.55;;
6519;SDS011;3293;51.690;5.982;2023-09-12T20:51:21;18.10;;;16.15;;
6519;SDS011;3293;51.690;5.982;2023-09-12T20:56:21;17.17;;;15.15;;
6519;SDS011;3293;51.690;5.982;2023-09-12T21:01:22;19.08;;;14.93;;
6519;SDS011;3293;51.690;5.982;2023-09-12T21:06:22;20.38;;;16.73;;
6519;SDS011;3293;51.690;5.982;2023-09-12T21:11:22;19.13;;;15.23;;
6519;SDS011;3293;51.690;5.982;2023-09-12T21:16:22;22.63;;;17.42;;
6519;SDS011;3293;51.690;5.982;2023-09-12T21:21:22;25.20;;;18.25;;
6519;SDS011;3293;51.690;5.982;2023-09-12T21:26:22;22.85;;;18.63;;
6519;SDS011;3293;51.690;5.982;2023-09-12T21:31:23;21.20;;;17.92;;
6519;SDS011;3293;51.690;5.982;2023-09-12T21:36:23;20.33;;;16.60;;
6519;SDS011;3293;51.690;5.982;2023-09-12T21:41:23;20.73;;;17.17;;
6519;SDS011;3293;51.690;5.982;2023-09-12T21:46:23;22.13;;;17.42;;
6519;SDS011;3293;51.690;5.982;2023-09-12T21:51:25;18.92;;;15.98;;
6519;SDS011;3293;51.690;5.982;2023-09-12T21:56:26;25.55;;;18.67;;
6519;SDS011;3293;51.690;5.982;2023-09-12T22:01:27;21.92;;;15.85;;
6519;SDS011;3293;51.690;5.982;2023-09-12T22:06:28;21.67;;;18.02;;
6519;SDS011;3293;51.690;5.982;2023-09-12T22:11:28;23.10;;;17.98;;
6519;SDS011;3293;51.690;5.982;2023-09-12T22:16:29;22.35;;;18.77;;
6519;SDS011;3293;51.690;5.982;2023-09-12T22:21:30;22.45;;;18.20;;
6519;SDS011;3293;51.690;5.982;2023-09-12T22:26:30;22.00;;;17.05;;
6519;SDS011;3293;51.690;5.982;2023-09-12T22:31:30;22.90;;;18.42;;
6519;SDS011;3293;51.690;5.982;2023-09-12T22:36:31;23.40;;;17.88;;
6519;SDS011;3293;51.690;5.982;2023-09-12T22:41:31;24.17;;;18.80;;
6519;SDS011;3293;51.690;5.982;2023-09-12T22:46:31;24.30;;;20.10;;
6519;SDS011;3293;51.690;5.982;2023-09-12T22:51:31;25.38;;;19.05;;
6519;SDS011;3293;51.690;5.982;2023-09-12T22:56:31;21.15;;;16.70;;
6519;SDS011;3293;51.690;5.982;2023-09-12T23:01:32;25.30;;;19.83;;
6519;SDS011;3293;51.690;5.982;2023-09-12T23:06:32;26.63;;;21.10;;
6519;SDS011;3293;51.690;5.982;2023-09-12T23:11:32;28.08;;;20.83;;
6519;SDS011;3293;51.690;5.982;2023-09-12T23:16:32;28.02;;;20.60;;
6519;SDS011;3293;51.690;5.982;2023-09-12T23:21:34;26.35;;;20.38;;
6519;SDS011;3293;51.690;5.982;2023-09-12T23:26:34;25.10;;;19.98;;
6519;SDS011;3293;51.690;5.982;2023-09-12T23:31:34;26.38;;;20.10;;
6519;SDS011;3293;51.690;5.982;2023-09-12T23:36:34;26.38;;;20.70;;
6519;SDS011;3293;51.690;5.982;2023-09-12T23:41:35;27.70;;;22.33;;
6519;SDS011;3293;51.690;5.982;2023-09-12T23:46:35;30.67;;;23.23;;
6519;SDS011;3293;51.690;5.982;2023-09-12T23:51:35;27.08;;;20.67;;
6519;SDS011;3293;51.690;5.982;2023-09-12T23:56:37;31.30;;;23.05;;
